Terminal Aerodrome Forecast
Issued by NWS Wilmington, OH

Current Version | Previous Version | Graphics & Text | Print | Product List | Glossary On
Versions: 1 2 3 4 5 6 7 8 9 10 11 12 13 14 15 16 17 18
312
FTUS41 KILN 210538
TAFILN
TAF
KILN 210538Z 2106/2206 19003KT P6SM BKN250
     FM211400 22009KT P6SM SCT050 BKN250
     FM220100 VRB03KT P6SM SCT250=

USA.gov is the U.S. government's official web portal to all federal, state and local government web resources and services.